sensor_id;sensor_type;location;lat;lon;timestamp;pressure;altitude;pressure_sealevel;temperature;humidity
73457;BME280;61691;53.072;6.582;2023-12-22T00:02:19;99674.72;;;4.62;79.04
73457;BME280;61691;53.072;6.582;2023-12-22T00:04:46;99691.22;;;4.85;79.11
73457;BME280;61691;53.072;6.582;2023-12-22T00:07:13;99723.56;;;5.06;79.05
73457;BME280;61691;53.072;6.582;2023-12-22T00:09:40;99732.09;;;5.20;79.03
73457;BME280;61691;53.072;6.582;2023-12-22T00:12:07;99706.09;;;5.17;78.38
73457;BME280;61691;53.072;6.582;2023-12-22T00:14:33;99712.81;;;5.30;78.02
73457;BME280;61691;53.072;6.582;2023-12-22T00:17:00;99710.06;;;5.32;77.82
73457;BME280;61691;53.072;6.582;2023-12-22T00:19:27;99710.91;;;5.32;76.99
73457;BME280;61691;53.072;6.582;2023-12-22T00:21:54;99687.63;;;5.28;76.62
73457;BME280;61691;53.072;6.582;2023-12-22T00:24:20;99707.63;;;5.40;75.52
73457;BME280;61691;53.072;6.582;2023-12-22T00:26:47;99737.28;;;5.52;75.79
73457;BME280;61691;53.072;6.582;2023-12-22T00:29:14;99746.72;;;5.54;75.29
73457;BME280;61691;53.072;6.582;2023-12-22T00:31:43;99762.22;;;5.57;75.28
73457;BME280;61691;53.072;6.582;2023-12-22T00:34:10;99742.00;;;5.48;76.01
73457;BME280;61691;53.072;6.582;2023-12-22T00:36:37;99737.09;;;5.43;76.64
73457;BME280;61691;53.072;6.582;2023-12-22T00:39:04;99735.19;;;5.45;77.15
73457;BME280;61691;53.072;6.582;2023-12-22T00:41:30;99743.53;;;5.30;77.10
73457;BME280;61691;53.072;6.582;2023-12-22T00:43:57;99746.88;;;5.32;77.64
73457;BME280;61691;53.072;6.582;2023-12-22T00:46:24;99754.63;;;5.33;77.59
73457;BME280;61691;53.072;6.582;2023-12-22T00:48:50;99697.94;;;4.99;77.49
73457;BME280;61691;53.072;6.582;2023-12-22T00:51:17;99769.56;;;5.33;77.79
73457;BME280;61691;53.072;6.582;2023-12-22T00:53:44;99775.28;;;5.27;77.73
73457;BME280;61691;53.072;6.582;2023-12-22T00:56:10;99778.44;;;5.21;77.88
73457;BME280;61691;53.072;6.582;2023-12-22T00:58:40;99736.97;;;5.03;77.65
73457;BME280;61691;53.072;6.582;2023-12-22T01:01:07;99748.78;;;5.30;77.60
73457;BME280;61691;53.072;6.582;2023-12-22T01:03:34;99780.31;;;5.30;77.91
73457;BME280;61691;53.072;6.582;2023-12-22T01:06:01;99774.41;;;5.17;77.22
73457;BME280;61691;53.072;6.582;2023-12-22T01:08:28;99768.72;;;5.32;77.19
73457;BME280;61691;53.072;6.582;2023-12-22T01:10:55;99775.28;;;5.27;77.01
73457;BME280;61691;53.072;6.582;2023-12-22T01:13:21;99771.38;;;5.21;77.27
73457;BME280;61691;53.072;6.582;2023-12-22T01:15:48;99757.16;;;5.03;77.56
73457;BME280;61691;53.072;6.582;2023-12-22T01:18:15;99787.53;;;5.17;77.92
73457;BME280;61691;53.072;6.582;2023-12-22T01:20:42;99755.41;;;4.92;77.55
73457;BME280;61691;53.072;6.582;2023-12-22T01:23:09;99779.19;;;5.12;77.28
73457;BME280;61691;53.072;6.582;2023-12-22T01:25:35;99790.66;;;5.11;77.34
73457;BME280;61691;53.072;6.582;2023-12-22T01:28:02;99767.25;;;5.19;77.50
73457;BME280;61691;53.072;6.582;2023-12-22T01:30:31;99768.88;;;5.20;77.13
73457;BME280;61691;53.072;6.582;2023-12-22T01:32:58;99768.00;;;5.10;76.71
73457;BME280;61691;53.072;6.582;2023-12-22T01:35:25;99803.75;;;5.22;76.82
73457;BME280;61691;53.072;6.582;2023-12-22T01:37:51;99790.03;;;5.18;77.03
73457;BME280;61691;53.072;6.582;2023-12-22T01:40:18;99730.63;;;4.74;76.92
73457;BME280;61691;53.072;6.582;2023-12-22T01:42:45;99784.44;;;5.12;77.10
73457;BME280;61691;53.072;6.582;2023-12-22T01:45:13;99819.78;;;5.19;77.27
73457;BME280;61691;53.072;6.582;2023-12-22T01:47:39;99796.63;;;5.13;77.26
73457;BME280;61691;53.072;6.582;2023-12-22T01:50:07;99795.63;;;5.25;77.34
73457;BME280;61691;53.072;6.582;2023-12-22T01:52:38;99801.66;;;5.36;77.22
73457;BME280;61691;53.072;6.582;2023-12-22T01:55:06;99797.47;;;5.34;76.88
73457;BME280;61691;53.072;6.582;2023-12-22T01:57:37;99781.06;;;5.21;77.17
73457;BME280;61691;53.072;6.582;2023-12-22T02:00:05;99797.47;;;5.34;76.82
73457;BME280;61691;53.072;6.582;2023-12-22T02:02:32;99786.06;;;5.24;76.56
73457;BME280;61691;53.072;6.582;2023-12-22T02:05:00;99799.16;;;5.35;76.72
73457;BME280;61691;53.072;6.582;2023-12-22T02:07:27;99784.09;;;5.37;76.47
73457;BME280;61691;53.072;6.582;2023-12-22T02:09:54;99778.13;;;5.35;76.65
73457;BME280;61691;53.072;6.582;2023-12-22T02:12:21;99777.13;;;5.47;76.71
73457;BME280;61691;53.072;6.582;2023-12-22T02:14:48;99790.47;;;5.55;76.76
73457;BME280;61691;53.072;6.582;2023-12-22T02:17:20;99791.13;;;5.57;76.56
73457;BME280;61691;53.072;6.582;2023-12-22T02:19:50;99780.19;;;5.52;76.52
73457;BME280;61691;53.072;6.582;2023-12-22T02:22:17;99802.66;;;5.56;76.48
73457;BME280;61691;53.072;6.582;2023-12-22T02:24:44;99786.88;;;5.56;76.32
73457;BME280;61691;53.072;6.582;2023-12-22T02:30:09;99807.19;;;5.75;76.68
73457;BME280;61691;53.072;6.582;2023-12-22T02:32:41;99810.22;;;5.70;76.52
73457;BME280;61691;53.072;6.582;2023-12-22T02:35:16;99831.25;;;5.70;76.71
73457;BME280;61691;53.072;6.582;2023-12-22T02:37:47;99823.28;;;5.61;76.78
73457;BME280;61691;53.072;6.582;2023-12-22T02:40:15;99807.63;;;5.59;76.49
73457;BME280;61691;53.072;6.582;2023-12-22T02:42:42;99775.66;;;5.33;76.85
73457;BME280;61691;53.072;6.582;2023-12-22T02:45:17;99810.06;;;5.51;76.67
73457;BME280;61691;53.072;6.582;2023-12-22T02:47:45;99807.94;;;5.45;77.16
73457;BME280;61691;53.072;6.582;2023-12-22T02:50:16;99775.06;;;5.30;76.72
73457;BME280;61691;53.072;6.582;2023-12-22T02:52:43;99781.69;;;5.34;76.95
73457;BME280;61691;53.072;6.582;2023-12-22T02:55:10;99777.09;;;5.26;77.73
73457;BME280;61691;53.072;6.582;2023-12-22T02:57:37;99765.63;;;5.27;77.64
73457;BME280;61691;53.072;6.582;2023-12-22T03:00:04;99766.00;;;5.23;77.96
73457;BME280;61691;53.072;6.582;2023-12-22T03:02:31;99766.44;;;5.28;78.24
73457;BME280;61691;53.072;6.582;2023-12-22T03:04:58;99774.03;;;5.42;78.50
73457;BME280;61691;53.072;6.582;2023-12-22T03:07:24;99765.19;;;5.43;79.04
73457;BME280;61691;53.072;6.582;2023-12-22T03:09:51;99765.44;;;5.40;78.86
73457;BME280;61691;53.072;6.582;2023-12-22T03:12:18;99789.53;;;5.45;78.48
73457;BME280;61691;53.072;6.582;2023-12-22T03:14:44;99775.97;;;5.40;79.24
73457;BME280;61691;53.072;6.582;2023-12-22T03:17:11;99775.13;;;5.39;79.17
73457;BME280;61691;53.072;6.582;2023-12-22T03:19:39;99791.78;;;5.50;78.93
73457;BME280;61691;53.072;6.582;2023-12-22T03:22:05;99790.59;;;5.54;78.98
73457;BME280;61691;53.072;6.582;2023-12-22T03:24:32;99790.94;;;5.49;79.03
73457;BME280;61691;53.072;6.582;2023-12-22T03:27:00;99785.03;;;5.36;79.00
73457;BME280;61691;53.072;6.582;2023-12-22T03:29:26;99791.97;;;5.37;78.93
73457;BME280;61691;53.072;6.582;2023-12-22T03:31:53;99794.59;;;5.37;79.01
73457;BME280;61691;53.072;6.582;2023-12-22T03:34:20;99789.84;;;5.31;79.75
73457;BME280;61691;53.072;6.582;2023-12-22T03:36:46;99803.72;;;5.33;79.59
73457;BME280;61691;53.072;6.582;2023-12-22T03:39:16;99789.22;;;5.38;79.78
73457;BME280;61691;53.072;6.582;2023-12-22T03:41:43;99702.13;;;5.01;79.93
73457;BME280;61691;53.072;6.582;2023-12-22T03:44:09;99761.41;;;5.36;79.82
73457;BME280;61691;53.072;6.582;2023-12-22T03:46:36;99814.78;;;5.57;79.55
73457;BME280;61691;53.072;6.582;2023-12-22T03:49:03;99816.47;;;5.58;79.21
73457;BME280;61691;53.072;6.582;2023-12-22T03:51:30;99808.22;;;5.63;79.46
73457;BME280;61691;53.072;6.582;2023-12-22T03:53:56;99830.41;;;5.70;79.55
73457;BME280;61691;53.072;6.582;2023-12-22T03:56:23;99824.31;;;5.69;79.55
73457;BME280;61691;53.072;6.582;2023-12-22T03:58:50;99814.03;;;5.66;79.40
73457;BME280;61691;53.072;6.582;2023-12-22T04:01:17;99808.53;;;5.69;79.32
73457;BME280;61691;53.072;6.582;2023-12-22T04:03:43;99789.63;;;5.55;79.43
73457;BME280;61691;53.072;6.582;2023-12-22T04:06:10;99793.56;;;5.49;79.49
73457;BME280;61691;53.072;6.582;2023-12-22T04:08:37;99802.75;;;5.55;79.32
73457;BME280;61691;53.072;6.582;2023-12-22T04:11:03;99775.97;;;5.40;79.78
73457;BME280;61691;53.072;6.582;2023-12-22T04:13:30;99763.63;;;5.20;79.39
73457;BME280;61691;53.072;6.582;2023-12-22T04:15:57;99808.19;;;5.42;79.83
73457;BME280;61691;53.072;6.582;2023-12-22T04:18:24;99816.03;;;5.53;79.71
73457;BME280;61691;53.072;6.582;2023-12-22T04:20:51;99822.47;;;5.49;79.44
73457;BME280;61691;53.072;6.582;2023-12-22T04:23:20;99829.19;;;5.53;79.90
73457;BME280;61691;53.072;6.582;2023-12-22T04:25:47;99825.81;;;5.51;79.82
73457;BME280;61691;53.072;6.582;2023-12-22T04:28:14;99801.13;;;5.42;79.47
73457;BME280;61691;53.072;6.582;2023-12-22T04:30:40;99795.03;;;5.42;79.62
73457;BME280;61691;53.072;6.582;2023-12-22T04:33:07;99794.56;;;5.48;79.59
73457;BME280;61691;53.072;6.582;2023-12-22T04:35:34;99816.16;;;5.52;79.46
73457;BME280;61691;53.072;6.582;2023-12-22T04:38:01;99822.84;;;5.56;79.79
73457;BME280;61691;53.072;6.582;2023-12-22T04:40:27;99772.75;;;5.36;79.67
73457;BME280;61691;53.072;6.582;2023-12-22T04:42:54;99828.53;;;5.81;79.34
73457;BME280;61691;53.072;6.582;2023-12-22T04:45:21;99776.47;;;5.55;79.00
73457;BME280;61691;53.072;6.582;2023-12-22T04:47:48;99811.09;;;5.80;78.49
73457;BME280;61691;53.072;6.582;2023-12-22T04:50:15;99825.59;;;5.96;77.71
73457;BME280;61691;53.072;6.582;2023-12-22T04:52:42;99840.59;;;6.05;77.58
73457;BME280;61691;53.072;6.582;2023-12-22T04:55:09;99842.53;;;6.03;76.98
73457;BME280;61691;53.072;6.582;2023-12-22T04:57:36;99814.19;;;5.86;76.79
73457;BME280;61691;53.072;6.582;2023-12-22T05:00:03;99845.63;;;6.08;76.33
73457;BME280;61691;53.072;6.582;2023-12-22T05:02:30;99840.59;;;6.05;76.03
73457;BME280;61691;53.072;6.582;2023-12-22T05:04:56;99785.91;;;5.78;76.07
73457;BME280;61691;53.072;6.582;2023-12-22T05:07:23;99814.84;;;5.99;75.84
73457;BME280;61691;53.072;6.582;2023-12-22T05:09:50;99832.19;;;6.11;75.75
73457;BME280;61691;53.072;6.582;2023-12-22T05:12:19;99850.41;;;6.24;75.94
73457;BME280;61691;53.072;6.582;2023-12-22T05:14:46;99870.34;;;6.26;75.70
73457;BME280;61691;53.072;6.582;2023-12-22T05:17:13;99860.16;;;6.12;75.47
73457;BME280;61691;53.072;6.582;2023-12-22T05:19:39;99867.28;;;6.21;75.46
73457;BME280;61691;53.072;6.582;2023-12-22T05:22:06;99878.72;;;6.31;74.97
73457;BME280;61691;53.072;6.582;2023-12-22T05:24:33;99873.69;;;6.28;74.88
73457;BME280;61691;53.072;6.582;2023-12-22T05:26:59;99870.41;;;6.36;74.19
73457;BME280;61691;53.072;6.582;2023-12-22T05:29:26;99880.69;;;6.39;74.24
73457;BME280;61691;53.072;6.582;2023-12-22T05:31:53;99851.81;;;6.28;73.73
73457;BME280;61691;53.072;6.582;2023-12-22T05:34:19;99852.22;;;6.23;73.51
73457;BME280;61691;53.072;6.582;2023-12-22T05:36:46;99859.28;;;6.32;73.64
73457;BME280;61691;53.072;6.582;2023-12-22T05:39:13;99811.25;;;6.00;73.05
73457;BME280;61691;53.072;6.582;2023-12-22T05:41:39;99889.56;;;6.38;73.03
73457;BME280;61691;53.072;6.582;2023-12-22T05:44:06;99887.03;;;6.36;73.00
73457;BME280;61691;53.072;6.582;2023-12-22T05:46:37;99897.16;;;6.41;73.28
73457;BME280;61691;53.072;6.582;2023-12-22T05:49:05;99909.25;;;6.43;72.77
73457;BME280;61691;53.072;6.582;2023-12-22T05:51:39;99901.88;;;6.37;72.54
73457;BME280;61691;53.072;6.582;2023-12-22T05:54:09;99910.97;;;6.33;72.08
73457;BME280;61691;53.072;6.582;2023-12-22T05:56:39;99903.97;;;6.43;72.17
73457;BME280;61691;53.072;6.582;2023-12-22T05:59:06;99882.31;;;6.30;72.11
73457;BME280;61691;53.072;6.582;2023-12-22T06:01:33;99898.00;;;6.41;72.04
73457;BME280;61691;53.072;6.582;2023-12-22T06:04:00;99897.28;;;6.39;72.14
73457;BME280;61691;53.072;6.582;2023-12-22T06:06:27;99904.69;;;6.45;72.21
73457;BME280;61691;53.072;6.582;2023-12-22T06:08:59;99896.22;;;6.42;71.87
73457;BME280;61691;53.072;6.582;2023-12-22T06:11:26;99911.22;;;6.51;72.06
73457;BME280;61691;53.072;6.582;2023-12-22T06:13:52;99873.16;;;6.34;71.77
73457;BME280;61691;53.072;6.582;2023-12-22T06:16:19;99899.91;;;6.39;71.57
73457;BME280;61691;53.072;6.582;2023-12-22T06:18:47;99899.81;;;6.41;71.65
73457;BME280;61691;53.072;6.582;2023-12-22T06:21:14;99906.38;;;6.46;71.65
73457;BME280;61691;53.072;6.582;2023-12-22T06:23:41;99880.63;;;6.29;71.67
73457;BME280;61691;53.072;6.582;2023-12-22T06:26:09;99912.19;;;6.50;71.47
73457;BME280;61691;53.072;6.582;2023-12-22T06:28:36;99920.66;;;6.53;71.42
73457;BME280;61691;53.072;6.582;2023-12-22T06:31:05;99914.56;;;6.53;71.22
73457;BME280;61691;53.072;6.582;2023-12-22T06:33:32;99906.78;;;6.51;71.33
73457;BME280;61691;53.072;6.582;2023-12-22T06:35:59;99907.75;;;6.50;71.03
73457;BME280;61691;53.072;6.582;2023-12-22T06:38:26;99921.34;;;6.55;70.18
73457;BME280;61691;53.072;6.582;2023-12-22T06:40:53;99852.59;;;6.18;70.38
73457;BME280;61691;53.072;6.582;2023-12-22T06:43:19;99868.34;;;6.39;70.12
73457;BME280;61691;53.072;6.582;2023-12-22T06:45:46;99822.38;;;6.13;70.43
73457;BME280;61691;53.072;6.582;2023-12-22T06:48:13;99895.44;;;6.51;70.26
73457;BME280;61691;53.072;6.582;2023-12-22T06:50:41;99869.31;;;6.38;70.06
73457;BME280;61691;53.072;6.582;2023-12-22T06:53:12;99906.50;;;6.54;69.75
73457;BME280;61691;53.072;6.582;2023-12-22T06:55:51;99906.84;;;6.61;69.61
73457;BME280;61691;53.072;6.582;2023-12-22T06:58:18;99904.59;;;6.56;68.97
73457;BME280;61691;53.072;6.582;2023-12-22T07:00:48;99890.94;;;6.42;69.43
73457;BME280;61691;53.072;6.582;2023-12-22T07:03:14;99925.41;;;6.59;69.22
73457;BME280;61691;53.072;6.582;2023-12-22T07:05:43;99898.19;;;6.49;69.12
73457;BME280;61691;53.072;6.582;2023-12-22T07:08:11;99898.19;;;6.49;69.32
73457;BME280;61691;53.072;6.582;2023-12-22T07:10:38;99892.47;;;6.44;69.26
73457;BME280;61691;53.072;6.582;2023-12-22T07:13:04;99884.59;;;6.44;69.42
73457;BME280;61691;53.072;6.582;2023-12-22T07:15:32;99874.66;;;6.27;69.38
73457;BME280;61691;53.072;6.582;2023-12-22T07:17:58;99924.25;;;6.52;69.43
73457;BME280;61691;53.072;6.582;2023-12-22T07:20:26;99949.22;;;6.58;69.20
73457;BME280;61691;53.072;6.582;2023-12-22T07:22:52;99913.16;;;6.49;69.51
73457;BME280;61691;53.072;6.582;2023-12-22T07:25:21;99918.59;;;6.57;69.68
73457;BME280;61691;53.072;6.582;2023-12-22T07:27:49;99917.31;;;6.51;69.16
73457;BME280;61691;53.072;6.582;2023-12-22T07:30:16;99934.97;;;6.60;69.76
73457;BME280;61691;53.072;6.582;2023-12-22T07:32:44;99932.34;;;6.60;69.36
73457;BME280;61691;53.072;6.582;2023-12-22T07:35:14;99937.16;;;6.55;69.36
73457;BME280;61691;53.072;6.582;2023-12-22T07:37:43;99952.56;;;6.60;69.44
73457;BME280;61691;53.072;6.582;2023-12-22T07:40:11;99950.63;;;6.62;69.54
73457;BME280;61691;53.072;6.582;2023-12-22T07:42:38;99937.16;;;6.55;69.75
73457;BME280;61691;53.072;6.582;2023-12-22T07:45:05;99968.41;;;6.70;69.72
73457;BME280;61691;53.072;6.582;2023-12-22T07:47:32;99933.44;;;6.58;69.77
73457;BME280;61691;53.072;6.582;2023-12-22T07:50:00;99954.56;;;6.68;69.75
73457;BME280;61691;53.072;6.582;2023-12-22T07:52:29;99951.91;;;6.68;70.31
73457;BME280;61691;53.072;6.582;2023-12-22T07:54:56;99956.91;;;6.71;70.13
73457;BME280;61691;53.072;6.582;2023-12-22T07:57:23;99953.75;;;6.77;69.92
73457;BME280;61691;53.072;6.582;2023-12-22T07:59:50;99945.84;;;6.77;70.33
73457;BME280;61691;53.072;6.582;2023-12-22T08:02:16;99936.78;;;6.70;70.28
73457;BME280;61691;53.072;6.582;2023-12-22T08:04:43;99940.56;;;6.77;70.31
73457;BME280;61691;53.072;6.582;2023-12-22T08:07:10;99932.66;;;6.77;70.48
73457;BME280;61691;53.072;6.582;2023-12-22T08:09:37;99917.41;;;6.71;70.47
73457;BME280;61691;53.072;6.582;2023-12-22T08:12:04;99944.88;;;6.78;70.47
73457;BME280;61691;53.072;6.582;2023-12-22T08:14:31;99957.66;;;6.82;70.63
73457;BME280;61691;53.072;6.582;2023-12-22T08:16:58;99941.22;;;6.69;70.65
73457;BME280;61691;53.072;6.582;2023-12-22T08:19:25;99938.22;;;6.74;70.98
73457;BME280;61691;53.072;6.582;2023-12-22T08:21:56;99923.78;;;6.68;70.94
73457;BME280;61691;53.072;6.582;2023-12-22T08:24:24;99969.59;;;6.86;71.37
73457;BME280;61691;53.072;6.582;2023-12-22T08:26:51;99936.78;;;6.70;71.46
73457;BME280;61691;53.072;6.582;2023-12-22T08:29:18;99921.81;;;6.60;72.01
73457;BME280;61691;53.072;6.582;2023-12-22T08:31:48;99925.47;;;6.79;72.56
73457;BME280;61691;53.072;6.582;2023-12-22T08:34:15;99957.69;;;6.92;73.90
73457;BME280;61691;53.072;6.582;2023-12-22T08:36:42;99956.28;;;6.88;73.89
73457;BME280;61691;53.072;6.582;2023-12-22T08:39:10;99926.25;;;6.70;73.54
73457;BME280;61691;53.072;6.582;2023-12-22T08:41:37;99946.53;;;6.79;74.19
73457;BME280;61691;53.072;6.582;2023-12-22T08:44:05;99969.59;;;6.86;74.62
73457;BME280;61691;53.072;6.582;2023-12-22T08:46:33;99959.19;;;6.85;75.32
73457;BME280;61691;53.072;6.582;2023-12-22T08:49:00;99935.16;;;6.69;75.32
73457;BME280;61691;53.072;6.582;2023-12-22T08:51:28;99924.34;;;6.72;76.07
73457;BME280;61691;53.072;6.582;2023-12-22T08:53:55;99941.56;;;6.76;75.65
73457;BME280;61691;53.072;6.582;2023-12-22T08:56:22;99951.81;;;6.79;76.01
73457;BME280;61691;53.072;6.582;2023-12-22T08:58:51;99945.72;;;6.78;76.93
73457;BME280;61691;53.072;6.582;2023-12-22T09:01:18;99944.03;;;6.77;77.12
73457;BME280;61691;53.072;6.582;2023-12-22T09:03:46;99924.44;;;6.60;76.87
73457;BME280;61691;53.072;6.582;2023-12-22T09:06:14;99935.16;;;6.69;77.18
73457;BME280;61691;53.072;6.582;2023-12-22T09:08:42;99933.31;;;6.69;77.06
73457;BME280;61691;53.072;6.582;2023-12-22T09:11:11;99920.75;;;6.73;77.28
73457;BME280;61691;53.072;6.582;2023-12-22T09:13:38;99908.47;;;6.62;77.11
73457;BME280;61691;53.072;6.582;2023-12-22T09:16:05;99919.34;;;6.69;76.87
73457;BME280;61691;53.072;6.582;2023-12-22T09:18:32;99921.66;;;6.62;77.08
73457;BME280;61691;53.072;6.582;2023-12-22T09:21:00;99949.19;;;6.79;77.70
73457;BME280;61691;53.072;6.582;2023-12-22T09:23:27;99936.84;;;6.79;77.27
73457;BME280;61691;53.072;6.582;2023-12-22T09:25:54;99925.59;;;6.68;77.55
73457;BME280;61691;53.072;6.582;2023-12-22T09:28:21;99942.13;;;6.79;77.36
73457;BME280;61691;53.072;6.582;2023-12-22T09:30:48;99945.34;;;6.83;77.63
73457;BME280;61691;53.072;6.582;2023-12-22T09:33:14;99941.81;;;6.73;77.65
73457;BME280;61691;53.072;6.582;2023-12-22T09:35:42;99953.53;;;6.89;77.88
73457;BME280;61691;53.072;6.582;2023-12-22T09:38:10;99950.78;;;6.91;77.54
73457;BME280;61691;53.072;6.582;2023-12-22T09:40:37;99952.69;;;6.89;77.58
73457;BME280;61691;53.072;6.582;2023-12-22T09:43:06;99933.00;;;6.83;77.84
73457;BME280;61691;53.072;6.582;2023-12-22T09:45:34;99947.31;;;6.90;77.74
73457;BME280;61691;53.072;6.582;2023-12-22T09:48:01;99947.72;;;6.95;78.04
73457;BME280;61691;53.072;6.582;2023-12-22T09:50:29;99942.72;;;6.92;77.98
73457;BME280;61691;53.072;6.582;2023-12-22T09:52:56;99926.59;;;6.86;77.73
73457;BME280;61691;53.072;6.582;2023-12-22T09:55:24;99943.28;;;6.96;78.01
73457;BME280;61691;53.072;6.582;2023-12-22T09:57:52;99937.44;;;6.92;78.24
73457;BME280;61691;53.072;6.582;2023-12-22T10:00:20;99947.19;;;7.02;78.17
73457;BME280;61691;53.072;6.582;2023-12-22T10:02:48;99916.34;;;6.83;78.03
73457;BME280;61691;53.072;6.582;2023-12-22T10:05:15;99964.72;;;7.12;78.03
73457;BME280;61691;53.072;6.582;2023-12-22T10:07:44;99950.41;;;7.15;78.02
73457;BME280;61691;53.072;6.582;2023-12-22T10:10:12;99947.22;;;7.11;78.16
73457;BME280;61691;53.072;6.582;2023-12-22T10:12:41;99928.06;;;7.09;78.07
73457;BME280;61691;53.072;6.582;2023-12-22T10:15:12;99942.81;;;7.21;77.86
73457;BME280;61691;53.072;6.582;2023-12-22T10:17:39;99940.88;;;7.23;77.98
73457;BME280;61691;53.072;6.582;2023-12-22T10:20:07;99929.66;;;7.21;78.38
73457;BME280;61691;53.072;6.582;2023-12-22T10:22:35;99921.59;;;7.13;77.66
73457;BME280;61691;53.072;6.582;2023-12-22T10:25:01;99934.38;;;7.27;77.67
73457;BME280;61691;53.072;6.582;2023-12-22T10:27:29;99931.44;;;7.30;77.94
73457;BME280;61691;53.072;6.582;2023-12-22T10:29:56;99898.81;;;7.12;77.81
73457;BME280;61691;53.072;6.582;2023-12-22T10:32:23;99933.94;;;7.32;77.79
73457;BME280;61691;53.072;6.582;2023-12-22T10:34:53;99943.13;;;7.37;77.77
73457;BME280;61691;53.072;6.582;2023-12-22T10:37:21;99894.53;;;7.11;77.55
73457;BME280;61691;53.072;6.582;2023-12-22T10:39:52;99930.63;;;7.39;77.73
73457;BME280;61691;53.072;6.582;2023-12-22T10:42:19;99928.97;;;7.38;77.81
73457;BME280;61691;53.072;6.582;2023-12-22T10:44:46;99920.94;;;7.40;77.85
73457;BME280;61691;53.072;6.582;2023-12-22T10:47:17;99881.22;;;7.22;77.71
73457;BME280;61691;53.072;6.582;2023-12-22T10:49:45;99919.84;;;7.43;77.54
73457;BME280;61691;53.072;6.582;2023-12-22T10:52:16;99915.94;;;7.47;78.02
73457;BME280;61691;53.072;6.582;2023-12-22T10:54:44;99902.03;;;7.45;77.81
73457;BME280;61691;53.072;6.582;2023-12-22T10:57:11;99877.50;;;7.34;77.97
73457;BME280;61691;53.072;6.582;2023-12-22T10:59:45;99900.97;;;7.57;77.91
73457;BME280;61691;53.072;6.582;2023-12-22T11:02:27;99894.56;;;7.50;77.63
73457;BME280;61691;53.072;6.582;2023-12-22T11:05:04;99913.72;;;7.61;77.84
73457;BME280;61691;53.072;6.582;2023-12-22T11:07:34;99923.19;;;7.64;77.80
73457;BME280;61691;53.072;6.582;2023-12-22T11:10:06;99927.50;;;7.65;78.34
73457;BME280;61691;53.072;6.582;2023-12-22T11:12:37;99916.22;;;7.63;77.98
73457;BME280;61691;53.072;6.582;2023-12-22T11:15:05;99910.38;;;7.59;77.85
73457;BME280;61691;53.072;6.582;2023-12-22T11:17:34;99920.25;;;7.67;78.10
73457;BME280;61691;53.072;6.582;2023-12-22T11:20:03;99915.41;;;7.72;78.00
73457;BME280;61691;53.072;6.582;2023-12-22T11:22:31;99916.22;;;7.82;78.11
73457;BME280;61691;53.072;6.582;2023-12-22T11:25:00;99905.97;;;7.79;78.12
73457;BME280;61691;53.072;6.582;2023-12-22T11:27:28;99901.78;;;7.76;78.36
73457;BME280;61691;53.072;6.582;2023-12-22T11:29:56;99902.22;;;7.82;78.42
73457;BME280;61691;53.072;6.582;2023-12-22T11:32:23;99907.59;;;7.90;78.51
73457;BME280;61691;53.072;6.582;2023-12-22T11:34:51;99866.25;;;7.71;78.60
73457;BME280;61691;53.072;6.582;2023-12-22T11:37:19;99881.25;;;7.80;78.52
73457;BME280;61691;53.072;6.582;2023-12-22T11:39:46;99920.41;;;7.94;78.48
73457;BME280;61691;53.072;6.582;2023-12-22T11:42:21;99921.94;;;7.97;78.81
73457;BME280;61691;53.072;6.582;2023-12-22T11:44:48;99885.69;;;7.89;78.83
73457;BME280;61691;53.072;6.582;2023-12-22T11:47:15;99766.09;;;7.13;78.59
73457;BME280;61691;53.072;6.582;2023-12-22T11:49:43;99861.66;;;7.83;78.56
73457;BME280;61691;53.072;6.582;2023-12-22T11:52:15;99886.78;;;7.96;79.11
73457;BME280;61691;53.072;6.582;2023-12-22T11:54:49;99875.13;;;7.89;78.81
73457;BME280;61691;53.072;6.582;2023-12-22T11:57:37;99886.50;;;7.99;78.94
73457;BME280;61691;53.072;6.582;2023-12-22T12:00:09;99881.09;;;8.01;79.38
73457;BME280;61691;53.072;6.582;2023-12-22T12:02:57;99867.63;;;7.94;79.05
73457;BME280;61691;53.072;6.582;2023-12-22T12:05:24;99873.28;;;7.99;79.17
73457;BME280;61691;53.072;6.582;2023-12-22T12:07:51;99865.69;;;7.96;79.43
73457;BME280;61691;53.072;6.582;2023-12-22T12:15:33;99842.31;;;8.01;79.88
73457;BME280;61691;53.072;6.582;2023-12-22T12:18:00;99828.19;;;7.93;79.42
73457;BME280;61691;53.072;6.582;2023-12-22T12:20:28;99840.25;;;7.95;79.52
73457;BME280;61691;53.072;6.582;2023-12-22T12:22:55;99847.88;;;7.98;79.84
73457;BME280;61691;53.072;6.582;2023-12-22T12:25:29;99836.50;;;7.98;79.60
73457;BME280;61691;53.072;6.582;2023-12-22T12:28:06;99777.72;;;7.59;79.87
73457;BME280;61691;53.072;6.582;2023-12-22T12:30:35;99844.28;;;7.99;79.88
73457;BME280;61691;53.072;6.582;2023-12-22T12:33:09;99841.50;;;8.01;79.69
73457;BME280;61691;53.072;6.582;2023-12-22T12:35:38;99836.78;;;7.95;79.96
73457;BME280;61691;53.072;6.582;2023-12-22T12:38:11;99821.94;;;7.84;80.01
73457;BME280;61691;53.072;6.582;2023-12-22T12:40:40;99837.31;;;7.98;80.05
73457;BME280;61691;53.072;6.582;2023-12-22T12:43:08;99837.75;;;8.03;79.79
73457;BME280;61691;53.072;6.582;2023-12-22T12:45:35;99816.50;;;7.95;79.87
73457;BME280;61691;53.072;6.582;2023-12-22T12:48:02;99834.97;;;7.95;79.91
73457;BME280;61691;53.072;6.582;2023-12-22T12:50:33;99832.34;;;7.95;80.10
73457;BME280;61691;53.072;6.582;2023-12-22T12:53:01;99815.94;;;7.92;80.17
73457;BME280;61691;53.072;6.582;2023-12-22T12:55:28;99828.75;;;7.96;80.23
73457;BME280;61691;53.072;6.582;2023-12-22T12:57:55;99820.00;;;7.86;80.09
73457;BME280;61691;53.072;6.582;2023-12-22T13:02:56;99829.72;;;7.95;80.61
73457;BME280;61691;53.072;6.582;2023-12-22T13:05:26;99819.75;;;7.80;80.54
73457;BME280;61691;53.072;6.582;2023-12-22T13:08:09;99838.72;;;7.93;80.45
73457;BME280;61691;53.072;6.582;2023-12-22T13:10:37;99823.59;;;7.85;80.75
73457;BME280;61691;53.072;6.582;2023-12-22T13:13:05;99822.50;;;7.78;80.59
73457;BME280;61691;53.072;6.582;2023-12-22T13:15:32;99821.81;;;7.76;80.83
73457;BME280;61691;53.072;6.582;2023-12-22T13:17:59;99811.97;;;7.68;80.67
73457;BME280;61691;53.072;6.582;2023-12-22T13:20:27;99826.81;;;7.69;80.92
73457;BME280;61691;53.072;6.582;2023-12-22T13:22:54;99831.97;;;7.71;81.06
73457;BME280;61691;53.072;6.582;2023-12-22T13:25:21;99815.16;;;7.62;81.13